createdAt,value
2023-03-21T00:01:16.441Z,4.3999999999999995
2023-03-21T00:04:17.335Z,4.987500000000001
2023-03-21T00:07:16.817Z,4.4
2023-03-21T00:11:16.770Z,4.9625
2023-03-21T00:14:19.145Z,4.025
2023-03-21T00:17:16.683Z,3.425
2023-03-21T00:21:39.649Z,3.675
2023-03-21T00:24:16.833Z,3.175
2023-03-21T00:27:41.394Z,2.9375
2023-03-21T00:31:16.297Z,2.975
2023-03-21T00:34:20.042Z,2.375
2023-03-21T00:37:17.895Z,2.3375000000000004
2023-03-21T00:41:26.381Z,2.15
2023-03-21T00:44:16.638Z,2.05
2023-03-21T00:47:16.675Z,3.0625
2023-03-21T00:51:20.814Z,3
2023-03-21T00:54:16.843Z,3.4
2023-03-21T00:57:17.699Z,2.5
2023-03-21T01:01:16.437Z,2.9375
2023-03-21T01:04:17.198Z,2.6875
2023-03-21T01:07:16.573Z,3.4125
2023-03-21T01:11:18.461Z,3.4125
2023-03-21T01:14:23.108Z,3.7750000000000004
2023-03-21T01:17:16.538Z,3.55
2023-03-21T01:21:16.656Z,3.6875
2023-03-21T01:24:16.855Z,2.225
2023-03-21T01:27:18.240Z,2.6375
2023-03-21T01:31:16.936Z,3.575
2023-03-21T01:51:18.391Z,3.4125
2023-03-21T01:54:23.824Z,2.7624999999999997
2023-03-21T01:57:21.228Z,2.5375
2023-03-21T02:01:16.699Z,3.2249999999999996
2023-03-21T02:04:22.433Z,2.5
2023-03-21T02:07:26.510Z,2.3875
2023-03-21T02:11:17.524Z,3.0250000000000004
2023-03-21T02:14:26.973Z,3.1624999999999996
2023-03-21T02:17:24.508Z,2.8
2023-03-21T02:21:54.940Z,3.3375
2023-03-21T02:24:40.003Z,3.2875
2023-03-21T02:27:20.932Z,2.95
2023-03-21T02:31:27.755Z,3.0375
2023-03-21T02:41:20.180Z,3.4375
2023-03-21T02:44:22.657Z,2.8
2023-03-21T02:47:23.308Z,2.5625
2023-03-21T02:51:18.451Z,3.45
2023-03-21T02:54:35.079Z,3.4124999999999996
2023-03-21T02:57:19.174Z,4.025
2023-03-21T03:01:16.262Z,3.9125
2023-03-21T03:04:18.695Z,4.200000000000001
2023-03-21T03:07:26.972Z,3.225
2023-03-21T03:11:25.566Z,3.1500000000000004
2023-03-21T03:14:49.940Z,3.125
2023-03-21T03:17:27.956Z,3.1875
2023-03-21T03:21:19.792Z,3.6374999999999997
2023-03-21T03:24:23.337Z,4.0875
2023-03-21T03:27:24.231Z,3.3875
2023-03-21T03:31:21.195Z,3.5625
2023-03-21T03:34:22.233Z,2.55
2023-03-21T03:37:20.725Z,2.95
2023-03-21T03:41:25.562Z,3.2750000000000004
2023-03-21T03:44:17.297Z,3
2023-03-21T03:47:32.358Z,3.0625
2023-03-21T03:51:22.172Z,2.575
2023-03-21T03:54:22.395Z,1.9875000000000003
2023-03-21T03:57:17.151Z,2.225
2023-03-21T04:01:16.521Z,2.325
2023-03-21T04:04:17.380Z,2.5125
2023-03-21T04:07:16.517Z,2.0125
2023-03-21T04:11:16.427Z,2.7874999999999996
2023-03-21T04:14:16.736Z,2.7125000000000004
2023-03-21T04:17:17.629Z,2.6875
2023-03-21T04:21:17.116Z,2.6375
2023-03-21T04:24:17.524Z,2.7125000000000004
2023-03-21T04:27:16.993Z,2.5625
2023-03-21T04:31:25.669Z,2.925
2023-03-21T04:34:16.579Z,3.0125
2023-03-21T04:37:17.641Z,3.0999999999999996
2023-03-21T04:41:16.145Z,3.7375
2023-03-21T04:44:17.845Z,2.4875000000000003
2023-03-21T04:47:17.184Z,2.3125
2023-03-21T04:51:16.454Z,2.375
2023-03-21T04:54:16.816Z,1.2999999999999998
2023-03-21T04:57:16.944Z,1.9625
2023-03-21T05:01:20.377Z,2.5375
2023-03-21T05:04:18.504Z,2.2
2023-03-21T05:07:16.375Z,2.2625
2023-03-21T05:11:16.267Z,3.1625
2023-03-21T05:14:19.392Z,2.7
2023-03-21T05:17:23.410Z,2.075
2023-03-21T05:21:18.969Z,1.9125
2023-03-21T05:24:19.303Z,1.7374999999999998
2023-03-21T05:27:35.786Z,1.5999999999999999
2023-03-21T05:31:18.005Z,1.7
2023-03-21T05:34:17.124Z,1.6375
2023-03-21T05:37:17.065Z,1.5875
2023-03-21T05:41:19.261Z,2.675
2023-03-21T05:44:17.269Z,1.4625
2023-03-21T05:47:17.866Z,1.7249999999999999
2023-03-21T05:51:17.828Z,2.125
2023-03-21T05:54:17.043Z,2.4000000000000004
2023-03-21T05:57:19.404Z,2.2125000000000004
2023-03-21T06:01:17.180Z,2.6875
2023-03-21T06:04:17.425Z,1.7000000000000002
2023-03-21T06:07:17.279Z,1.775
2023-03-21T06:11:23.961Z,1.8875000000000002
2023-03-21T06:14:17.383Z,2.1125
2023-03-21T06:17:16.817Z,2.325
2023-03-21T06:21:16.427Z,2.2
2023-03-21T06:24:18.161Z,2.15
2023-03-21T06:27:17.742Z,2.5375
2023-03-21T06:31:16.552Z,1.8125
2023-03-21T06:34:16.788Z,2.075
2023-03-21T06:37:17.313Z,1.1749999999999998
2023-03-21T06:41:17.408Z,1.7875
2023-03-21T06:44:17.105Z,1.2999999999999998
2023-03-21T06:47:17.135Z,0.9624999999999999
2023-03-21T06:51:17.139Z,1.5750000000000002
2023-03-21T06:54:18.474Z,1.5875
2023-03-21T06:57:18.346Z,1.125
2023-03-21T07:01:16.065Z,1.7625000000000002
2023-03-21T07:04:16.360Z,1.7374999999999998
2023-03-21T07:07:16.416Z,1.4500000000000002
2023-03-21T07:11:16.351Z,1.9375
2023-03-21T07:14:16.653Z,1.7625
2023-03-21T07:17:16.667Z,1.35
2023-03-21T07:21:16.901Z,2.125
2023-03-21T07:24:16.419Z,1.6875
2023-03-21T07:27:18.586Z,1.7375
2023-03-21T07:31:16.899Z,1.95
2023-03-21T07:34:18.179Z,1.8625
2023-03-21T07:37:17.101Z,1.9625
2023-03-21T07:44:16.923Z,2.2875
2023-03-21T07:47:16.578Z,1.8875
2023-03-21T07:51:16.636Z,1.8125
2023-03-21T07:54:19.536Z,1.8875
2023-03-21T07:57:17.751Z,1.875
2023-03-21T08:01:16.545Z,2.075
2023-03-21T08:04:16.839Z,2.075
2023-03-21T08:07:17.068Z,1.875
2023-03-21T08:11:16.372Z,1.8
2023-03-21T08:14:16.943Z,1.475
2023-03-21T08:17:16.808Z,1.3875
2023-03-21T08:21:16.598Z,1.2375
2023-03-21T08:24:16.892Z,1.6125
2023-03-21T08:27:16.855Z,1.2625
2023-03-21T08:31:16.239Z,1.3875
2023-03-21T08:34:18.525Z,1.35
2023-03-21T08:37:16.658Z,1.4875
2023-03-21T08:41:16.678Z,1.3125
2023-03-21T08:44:17.537Z,1.2625
2023-03-21T08:47:17.132Z,1.4125
2023-03-21T08:51:16.130Z,1.4125
2023-03-21T08:54:18.896Z,1.075
2023-03-21T08:57:16.616Z,1
2023-03-21T09:01:16.193Z,1.3375
2023-03-21T09:04:19.167Z,2.425
2023-03-21T09:07:18.258Z,2.7375
2023-03-21T09:11:16.611Z,1.35
2023-03-21T09:14:19.218Z,1.3125
2023-03-21T09:17:17.084Z,1.0875
2023-03-21T09:21:17.632Z,1.2875
2023-03-21T09:24:18.574Z,0.8375000000000001
2023-03-21T09:27:17.881Z,1.7625000000000002
2023-03-21T09:31:22.191Z,2.4124999999999996
2023-03-21T09:34:17.023Z,2.8625000000000003
2023-03-21T09:37:17.553Z,3.475
2023-03-21T09:41:29.370Z,5.65
2023-03-21T09:44:30.800Z,5.8375
2023-03-21T09:47:23.296Z,4.925
2023-03-21T09:51:17.884Z,5.5125
2023-03-21T09:54:22.643Z,4.6
2023-03-21T09:57:29.872Z,3.95
2023-03-21T10:01:26.706Z,5.25
2023-03-21T10:04:19.242Z,5.275
2023-03-21T10:07:19.278Z,4.25
2023-03-21T10:11:20.100Z,4.35
2023-03-21T10:14:20.650Z,4.0125
2023-03-21T10:17:26.442Z,3.6625
2023-03-21T10:21:43.119Z,3.6125
2023-03-21T10:24:20.653Z,3.2625
2023-03-21T10:27:16.734Z,3.7625
2023-03-21T10:31:20.058Z,4.1875
2023-03-21T10:34:19.962Z,3.2874999999999996
2023-03-21T10:37:18.227Z,3
2023-03-21T10:41:16.648Z,3.3125
2023-03-21T10:44:18.311Z,2.85
2023-03-21T10:47:21.315Z,2.625
2023-03-21T10:51:20.417Z,2.5500000000000003
2023-03-21T10:54:19.311Z,2.15
2023-03-21T10:57:21.206Z,2.4375
2023-03-21T11:01:28.025Z,2.1125
2023-03-21T11:04:19.714Z,2.125
2023-03-21T11:07:19.625Z,1.7625
2023-03-21T11:11:25.292Z,1.7375
2023-03-21T11:14:31.068Z,1.9249999999999998
2023-03-21T11:17:22.155Z,1.875
2023-03-21T11:21:17.901Z,1.65
2023-03-21T11:24:18.913Z,1.4874999999999998
2023-03-21T11:27:17.196Z,2.1625
2023-03-21T11:31:17.912Z,1.2625000000000002
2023-03-21T11:34:25.798Z,1.725
2023-03-21T11:37:23.593Z,1.425
2023-03-21T11:41:22.848Z,1.575
2023-03-21T11:44:28.146Z,1.5
2023-03-21T11:47:16.807Z,1.5625
2023-03-21T11:51:25.745Z,1.4625
2023-03-21T11:54:27.775Z,1.4
2023-03-21T11:57:26.568Z,1.3
2023-03-21T12:01:26.644Z,1.5125
2023-03-21T12:04:34.221Z,1.9625
2023-03-21T12:07:30.821Z,2.2
2023-03-21T12:11:27.433Z,1.9625000000000001
2023-03-21T12:14:25.251Z,1.5750000000000002
2023-03-21T12:17:29.868Z,1.2000000000000002
2023-03-21T12:21:23.984Z,1.2874999999999999
2023-03-21T12:24:21.566Z,1.0375
2023-03-21T12:27:24.032Z,1.175
2023-03-21T12:31:25.677Z,1.125
2023-03-21T12:34:32.587Z,1.075
2023-03-21T12:37:30.813Z,1.3
2023-03-21T12:41:23.377Z,1.225
2023-03-21T12:44:20.615Z,1.3624999999999998
2023-03-21T12:47:22.900Z,1.3375
2023-03-21T12:51:22.090Z,1.1875
2023-03-21T12:54:25.920Z,1.4375
2023-03-21T12:57:20.530Z,0.9875
2023-03-21T13:01:20.835Z,1.175
2023-03-21T13:05:00.840Z,0.8875
2023-03-21T13:07:21.217Z,0.9
2023-03-21T13:11:20.542Z,1.275
2023-03-21T13:14:21.784Z,1.125
2023-03-21T13:17:27.281Z,1.425
2023-03-21T13:21:26.714Z,1.5999999999999999
2023-03-21T13:24:24.096Z,1.5125
2023-03-21T13:27:25.608Z,1.4125
2023-03-21T13:31:19.378Z,1.575
2023-03-21T13:34:20.993Z,1.5
2023-03-21T13:37:18.721Z,1.6625
2023-03-21T13:41:20.070Z,1.2625
2023-03-21T13:44:24.251Z,1.6875
2023-03-21T13:47:35.227Z,1.4125
2023-03-21T13:51:37.383Z,1.4249999999999998
2023-03-21T13:54:21.007Z,1.2
2023-03-21T13:57:37.799Z,1.6
2023-03-21T14:01:26.778Z,1.3625
2023-03-21T14:04:20.472Z,1.3624999999999998
2023-03-21T14:07:24.134Z,1.275
2023-03-21T14:11:19.217Z,0.9000000000000001
2023-03-21T14:14:18.622Z,1.4249999999999998
2023-03-21T14:17:23.132Z,1.0750000000000002
2023-03-21T14:21:23.543Z,1.075
2023-03-21T14:24:18.988Z,1.025
2023-03-21T14:27:19.183Z,1.3000000000000003
2023-03-21T14:31:20.291Z,1.6749999999999998
2023-03-21T14:34:18.308Z,1.375
2023-03-21T14:37:27.434Z,1.5750000000000002
2023-03-21T14:41:22.501Z,1.7625000000000002
2023-03-21T14:44:21.362Z,1.4625
2023-03-21T14:47:19.613Z,1.45
2023-03-21T14:51:18.001Z,2.55
2023-03-21T14:54:18.973Z,1.7625
2023-03-21T14:57:21.033Z,1.8125
2023-03-21T15:01:24.035Z,1.8875
2023-03-21T15:04:17.789Z,1.475
2023-03-21T15:07:26.296Z,1.25
2023-03-21T15:11:17.096Z,1.375
2023-03-21T15:14:20.015Z,1.1624999999999999
2023-03-21T15:17:18.350Z,1.625
2023-03-21T15:21:23.037Z,1.8125
2023-03-21T15:24:21.405Z,1.0375
2023-03-21T15:27:22.838Z,1.6875
2023-03-21T15:31:19.279Z,1.9625000000000001
2023-03-21T15:34:20.291Z,1.45
2023-03-21T15:37:22.547Z,1.1625
2023-03-21T15:41:27.553Z,1.3125
2023-03-21T15:44:21.688Z,1.8625
2023-03-21T15:47:37.878Z,1.475
2023-03-21T15:51:21.237Z,1.6749999999999998
2023-03-21T15:54:22.448Z,1.625
2023-03-21T15:57:24.244Z,1.6375000000000002
2023-03-21T16:01:19.319Z,1.925
2023-03-21T16:04:19.805Z,1.45
2023-03-21T16:07:18.574Z,1.4
2023-03-21T16:11:22.697Z,2.0374999999999996
2023-03-21T16:14:19.910Z,2.0875
2023-03-21T16:17:29.901Z,2.0875
2023-03-21T16:21:19.840Z,2.5374999999999996
2023-03-21T16:24:17.519Z,2.1
2023-03-21T16:27:19.350Z,2.0125
2023-03-21T16:31:19.634Z,3.45
2023-03-21T16:34:17.587Z,2.45
2023-03-21T16:37:17.628Z,2.475
2023-03-21T16:41:17.018Z,1.8624999999999998
2023-03-21T16:44:17.801Z,1.2624999999999997
2023-03-21T16:47:20.490Z,1.3125
2023-03-21T16:51:19.097Z,1.575
2023-03-21T16:54:17.176Z,1.125
2023-03-21T16:57:23.887Z,1.0375
2023-03-21T17:01:21.522Z,1.8
2023-03-21T17:04:18.426Z,1.225
2023-03-21T17:07:18.735Z,1.55
2023-03-21T17:11:19.702Z,1.7374999999999998
2023-03-21T17:14:18.955Z,1.8
2023-03-21T17:17:17.547Z,1.6375
2023-03-21T17:21:20.516Z,3.375
2023-03-21T17:24:17.456Z,2.2625
2023-03-21T17:27:21.246Z,1.9999999999999998
2023-03-21T17:31:22.165Z,1.675
2023-03-21T17:34:18.564Z,1.375
2023-03-21T17:37:20.674Z,1.7625
2023-03-21T17:41:21.477Z,1.6875
2023-03-21T17:44:18.370Z,1.4625
2023-03-21T17:47:20.915Z,1.675
2023-03-21T17:51:17.711Z,1.9875000000000003
2023-03-21T17:54:17.618Z,1.825
2023-03-21T17:57:19.383Z,1.6375000000000002
2023-03-21T18:01:22.021Z,1.8624999999999998
2023-03-21T18:04:20.935Z,2.0125
2023-03-21T18:07:29.647Z,2.4875
2023-03-21T18:11:21.022Z,3.0375
2023-03-21T18:14:21.505Z,2.7
2023-03-21T18:17:21.450Z,3.25
2023-03-21T18:21:20.256Z,3.5375
2023-03-21T18:24:18.757Z,2.175
2023-03-21T18:27:17.788Z,3.5250000000000004
2023-03-21T18:31:21.967Z,3.9375
2023-03-21T18:34:20.186Z,3.0625
2023-03-21T18:37:20.816Z,3.0625
2023-03-21T18:41:20.875Z,3.15
2023-03-21T18:44:24.292Z,3.175
2023-03-21T18:47:19.732Z,2.6125
2023-03-21T19:01:16.454Z,3
2023-03-21T19:04:23.750Z,2.85
2023-03-21T19:07:16.716Z,2.9375
2023-03-21T19:11:21.523Z,3.2750000000000004
2023-03-21T19:14:17.394Z,2.5500000000000003
2023-03-21T19:18:15.305Z,2.9375
2023-03-21T19:21:17.395Z,3.5374999999999996
2023-03-21T19:24:27.122Z,2.85
2023-03-21T19:27:16.423Z,2.875
2023-03-21T19:31:16.726Z,3.4875
2023-03-21T19:34:16.750Z,2.8125
2023-03-21T19:37:16.154Z,2.8
2023-03-21T19:41:16.590Z,4.5
2023-03-21T19:44:16.429Z,2.9
2023-03-21T19:47:16.393Z,3.125
2023-03-21T19:51:28.605Z,2.975
2023-03-21T19:54:17.945Z,2.7
2023-03-21T19:57:16.856Z,3.125
2023-03-21T20:01:16.425Z,2.675
2023-03-21T20:04:17.966Z,3.4875
2023-03-21T20:07:16.311Z,3.2125000000000004
2023-03-21T20:11:17.765Z,2.6875
2023-03-21T20:14:16.775Z,2.975
2023-03-21T20:17:16.668Z,2.65
2023-03-21T20:21:18.488Z,2.875
2023-03-21T20:24:17.011Z,3.175
2023-03-21T20:27:24.355Z,4.55
2023-03-21T20:31:17.981Z,2.75
2023-03-21T20:34:16.831Z,3.1750000000000003
2023-03-21T20:37:16.725Z,3.5875000000000004
2023-03-21T20:41:16.870Z,3.2625
2023-03-21T20:44:48.140Z,3.6875
2023-03-21T20:47:16.111Z,3.525
2023-03-21T20:52:36.852Z,3.4125
2023-03-21T20:54:18.530Z,4.1000000000000005
2023-03-21T20:57:19.511Z,3.275
2023-03-21T21:01:18.842Z,3.0999999999999996
2023-03-21T21:04:20.579Z,2.8000000000000003
2023-03-21T21:07:19.442Z,2.55
2023-03-21T21:12:02.938Z,3.7875
2023-03-21T21:14:16.642Z,3.8374999999999995
2023-03-21T21:17:46.529Z,3.3
2023-03-21T21:21:17.371Z,3.1374999999999997
2023-03-21T21:24:17.023Z,3.175
2023-03-21T21:27:16.843Z,3.0875
2023-03-21T21:31:19.283Z,4.574999999999999
2023-03-21T21:34:18.378Z,3.3875
2023-03-21T21:37:16.397Z,2.7625
2023-03-21T21:41:19.165Z,2.6125
2023-03-21T21:44:16.362Z,3.25
2023-03-21T21:47:16.518Z,2.575
2023-03-21T21:51:26.098Z,3.8375000000000004
2023-03-21T21:54:18.403Z,2.45
2023-03-21T21:57:19.132Z,2.5125
2023-03-21T22:01:17.685Z,2.8874999999999997
2023-03-21T22:04:18.320Z,3.175
2023-03-21T22:07:17.097Z,3.125
2023-03-21T22:11:17.975Z,3.95
2023-03-21T22:14:16.809Z,3.4875
2023-03-21T22:17:17.144Z,3.375
2023-03-21T22:21:16.549Z,3.6125
2023-03-21T22:24:17.146Z,2.5875
2023-03-21T22:27:17.222Z,2.4749999999999996
2023-03-21T22:31:17.017Z,2.4625000000000004
2023-03-21T22:34:16.912Z,2.925
2023-03-21T22:37:17.021Z,2.3375000000000004
2023-03-21T22:41:15.892Z,2.8375000000000004
2023-03-21T22:44:16.670Z,3.2624999999999997
2023-03-21T22:47:16.360Z,2.8499999999999996
2023-03-21T22:51:16.652Z,3.0125
2023-03-21T22:54:16.891Z,2.775
2023-03-21T22:57:17.515Z,2.5875
2023-03-21T23:01:17.207Z,2.825
2023-03-21T23:04:17.589Z,2.7875
2023-03-21T23:07:17.402Z,3.4375
2023-03-21T23:11:16.178Z,2.8125
2023-03-21T23:14:17.275Z,2.5375
2023-03-21T23:17:16.573Z,3.3625
2023-03-21T23:21:16.669Z,2.5125
2023-03-21T23:24:16.183Z,2.725
2023-03-21T23:27:18.263Z,2.8625
2023-03-21T23:31:19.102Z,2.4875000000000003
2023-03-21T23:34:16.989Z,2.5500000000000003
2023-03-21T23:37:16.868Z,2.4375
2023-03-21T23:41:18.882Z,3.5374999999999996
2023-03-21T23:44:16.691Z,2.5
2023-03-21T23:47:16.727Z,2.9000000000000004
2023-03-21T23:51:17.348Z,2.6625
2023-03-21T23:54:16.298Z,2.3375000000000004
2023-03-21T23:57:17.265Z,2.8375
